Time,TemperatureF,DewpointF,PressureIn,WindDirection,WindDirectionDegrees,WindSpeedMPH,WindSpeedGustMPH,Humidity,HourlyPrecipIn,Conditions,Clouds,dailyrainin,SoftwareType,DateUTC
2013-01-29 00:02:00,12.8,9.6,23.05,SW,225,0.7,2.2,87,0.00,,,0.00,WUHU216HW,2013-01-29 07:02:00,
2013-01-29 00:07:00,13.0,9.8,23.05,SSW,203,0.0,1.1,87,0.00,,,0.00,WUHU216HW,2013-01-29 07:07:00,
2013-01-29 00:12:00,13.0,9.8,23.05,WNW,293,0.4,1.1,87,0.00,,,0.00,WUHU216HW,2013-01-29 07:12:00,
2013-01-29 00:17:00,13.0,9.8,23.05,NW,315,0.9,1.1,87,0.00,,,0.00,WUHU216HW,2013-01-29 07:17:00,
2013-01-29 00:22:00,13.1,10.0,23.05,West,270,0.9,1.1,87,0.00,,,0.00,WUHU216HW,2013-01-29 07:22:00,
2013-01-29 00:27:00,13.1,10.0,23.05,West,270,0.2,1.1,87,0.00,,,0.00,WUHU216HW,2013-01-29 07:27:00,
2013-01-29 00:32:00,13.1,10.0,23.05,West,270,1.1,1.1,87,0.00,,,0.00,WUHU216HW,2013-01-29 07:32:00,
2013-01-29 00:37:00,13.3,10.2,23.05,WNW,293,0.4,1.1,87,0.00,,,0.00,WUHU216HW,2013-01-29 07:37:00,
2013-01-29 00:42:00,13.3,10.2,23.04,WSW,248,1.1,2.2,87,0.00,,,0.00,WUHU216HW,2013-01-29 07:42:00,
2013-01-29 00:47:00,13.3,10.2,23.04,WNW,293,0.4,2.2,87,0.00,,,0.00,WUHU216HW,2013-01-29 07:47:00,
2013-01-29 00:52:00,13.3,10.2,23.04,West,270,0.4,1.6,87,0.00,,,0.00,WUHU216HW,2013-01-29 07:52:00,
2013-01-29 00:57:00,13.3,10.2,23.04,West,270,1.3,1.6,87,0.00,,,0.00,WUHU216HW,2013-01-29 07:57:00,
2013-01-29 01:02:00,13.3,10.2,23.04,West,270,0.4,1.3,87,0.00,,,0.00,WUHU216HW,2013-01-29 08:02:00,
2013-01-29 01:07:00,13.3,10.4,23.04,West,270,0.4,1.1,88,0.00,,,0.00,WUHU216HW,2013-01-29 08:07:00,
2013-01-29 01:12:00,13.3,10.4,23.04,WNW,293,0.4,1.1,88,0.00,,,0.00,WUHU216HW,2013-01-29 08:12:00,
2013-01-29 01:17:00,13.3,10.4,23.03,West,270,0.2,1.1,88,0.00,,,0.00,WUHU216HW,2013-01-29 08:17:00,
2013-01-29 01:22:00,13.3,10.4,23.03,West,270,0.9,1.1,88,0.00,,,0.00,WUHU216HW,2013-01-29 08:22:00,
2013-01-29 01:28:00,13.3,10.4,23.03,West,270,1.1,1.1,88,0.00,,,0.00,WUHU216HW,2013-01-29 08:28:00,
2013-01-29 01:33:00,13.3,10.2,23.03,WNW,293,0.9,1.1,87,0.00,,,0.00,WUHU216HW,2013-01-29 08:33:00,
2013-01-29 01:38:00,13.3,10.4,23.03,WNW,293,1.6,1.6,88,0.00,,,0.00,WUHU216HW,2013-01-29 08:38:00,
2013-01-29 01:43:00,13.3,10.4,23.03,WSW,248,0.2,1.8,88,0.00,,,0.00,WUHU216HW,2013-01-29 08:43:00,
2013-01-29 01:48:00,13.3,10.4,23.03,WNW,293,0.4,1.8,88,0.00,,,0.00,WUHU216HW,2013-01-29 08:48:00,
2013-01-29 01:53:00,13.1,10.3,23.03,WNW,293,1.1,1.8,88,0.00,,,0.00,WUHU216HW,2013-01-29 08:53:00,
2013-01-29 01:58:00,13.1,10.3,23.03,WNW,293,1.3,1.8,88,0.00,,,0.00,WUHU216HW,2013-01-29 08:58:00,
2013-01-29 02:04:00,13.1,10.3,23.02,WNW,293,1.1,1.8,88,0.00,,,0.00,WUHU216HW,2013-01-29 09:04:00,
2013-01-29 02:09:00,13.1,10.3,23.02,West,270,1.6,2.0,88,0.00,,,0.00,WUHU216HW,2013-01-29 09:09:00,
2013-01-29 02:15:00,13.1,10.3,23.02,West,270,0.9,3.1,88,0.00,,,0.00,WUHU216HW,2013-01-29 09:15:00,
2013-01-29 02:20:00,13.1,10.3,23.02,West,270,0.2,3.1,88,0.00,,,0.00,WUHU216HW,2013-01-29 09:20:00,
2013-01-29 02:25:00,13.1,10.3,23.02,West,270,0.2,1.6,88,0.00,,,0.00,WUHU216HW,2013-01-29 09:25:00,
2013-01-29 02:30:00,13.1,10.3,23.02,West,270,0.4,0.4,88,0.00,,,0.00,WUHU216HW,2013-01-29 09:30:00,
2013-01-29 02:35:00,13.1,10.3,23.02,West,270,0.2,0.4,88,0.00,,,0.00,WUHU216HW,2013-01-29 09:35:00,
2013-01-29 02:40:00,13.1,10.3,23.02,WSW,248,0.4,1.3,88,0.00,,,0.00,WUHU216HW,2013-01-29 09:40:00,
2013-01-29 02:45:00,13.1,10.3,23.02,WNW,293,1.1,1.3,88,0.00,,,0.00,WUHU216HW,2013-01-29 09:45:00,
2013-01-29 02:50:00,13.1,10.3,23.02,West,270,0.4,1.3,88,0.00,,,0.00,WUHU216HW,2013-01-29 09:50:00,
2013-01-29 02:55:00,13.0,10.1,23.02,WNW,293,0.0,0.7,88,0.00,,,0.00,WUHU216HW,2013-01-29 09:55:00,
2013-01-29 03:00:00,13.0,10.1,23.02,WSW,248,0.2,0.4,88,0.00,,,0.00,WUHU216HW,2013-01-29 10:00:00,
2013-01-29 03:05:00,13.0,10.1,23.02,West,270,0.0,0.4,88,0.00,,,0.00,WUHU216HW,2013-01-29 10:05:00,
2013-01-29 03:10:00,13.0,10.1,23.02,West,270,0.0,0.2,88,0.00,,,0.00,WUHU216HW,2013-01-29 10:10:00,
2013-01-29 03:15:00,13.0,10.1,23.01,West,270,0.0,0.2,88,0.00,,,0.00,WUHU216HW,2013-01-29 10:15:00,
2013-01-29 03:20:00,13.0,10.1,23.01,West,270,0.0,0.0,88,0.00,,,0.00,WUHU216HW,2013-01-29 10:20:00,
2013-01-29 03:26:00,13.0,10.1,23.01,West,270,0.0,0.0,88,0.00,,,0.00,WUHU216HW,2013-01-29 10:26:00,
2013-01-29 03:31:00,13.0,10.1,23.01,West,270,0.0,0.0,88,0.00,,,0.00,WUHU216HW,2013-01-29 10:31:00,
2013-01-29 03:36:00,12.8,9.9,23.01,West,270,0.0,0.0,88,0.00,,,0.00,WUHU216HW,2013-01-29 10:36:00,
2013-01-29 03:41:00,12.8,9.9,23.01,North,0,0.0,0.2,88,0.00,,,0.00,WUHU216HW,2013-01-29 10:41:00,
2013-01-29 03:46:00,12.8,9.9,23.01,North,0,0.2,0.2,88,0.00,,,0.00,WUHU216HW,2013-01-29 10:46:00,
2013-01-29 03:51:00,12.6,9.7,23.01,North,0,0.0,0.2,88,0.00,,,0.00,WUHU216HW,2013-01-29 10:51:00,
2013-01-29 03:56:00,12.4,9.5,23.01,North,0,0.0,0.2,88,0.00,,,0.00,WUHU216HW,2013-01-29 10:56:00,
2013-01-29 04:02:00,12.4,9.5,23.00,North,0,0.0,0.0,88,0.00,,,0.00,WUHU216HW,2013-01-29 11:02:00,
2013-01-29 04:07:00,12.4,9.5,23.00,North,0,0.0,0.0,88,0.00,,,0.00,WUHU216HW,2013-01-29 11:07:00,
2013-01-29 04:12:00,12.2,9.4,23.00,North,0,0.0,0.0,88,0.00,,,0.00,WUHU216HW,2013-01-29 11:12:00,
2013-01-29 04:17:00,12.2,9.4,23.00,North,0,0.0,0.2,88,0.00,,,0.00,WUHU216HW,2013-01-29 11:17:00,
2013-01-29 04:22:00,12.2,9.4,23.00,North,0,0.2,0.2,88,0.00,,,0.00,WUHU216HW,2013-01-29 11:22:00,
2013-01-29 04:27:00,12.1,9.2,23.00,North,0,0.0,0.4,88,0.00,,,0.00,WUHU216HW,2013-01-29 11:27:00,
2013-01-29 04:32:00,11.9,9.0,23.00,North,0,0.4,0.4,88,0.00,,,0.00,WUHU216HW,2013-01-29 11:32:00,
2013-01-29 04:37:00,11.9,9.0,23.00,North,0,0.0,0.4,88,0.00,,,0.00,WUHU216HW,2013-01-29 11:37:00,
2013-01-29 04:42:00,11.9,9.0,23.00,North,0,0.0,0.7,88,0.00,,,0.00,WUHU216HW,2013-01-29 11:42:00,
2013-01-29 04:47:00,11.9,9.0,23.00,North,0,0.0,0.7,88,0.00,,,0.00,WUHU216HW,2013-01-29 11:47:00,
2013-01-29 04:53:00,11.9,9.0,23.00,North,0,0.4,0.4,88,0.00,,,0.00,WUHU216HW,2013-01-29 11:53:00,
2013-01-29 04:58:00,11.7,8.8,22.99,East,90,0.2,0.4,88,0.00,,,0.00,WUHU216HW,2013-01-29 11:58:00,
2013-01-29 05:03:00,11.5,8.6,22.99,East,90,0.0,0.4,88,0.00,,,0.00,WUHU216HW,2013-01-29 12:03:00,
2013-01-29 05:08:00,11.5,8.6,22.99,East,90,0.0,0.2,88,0.00,,,0.00,WUHU216HW,2013-01-29 12:08:00,
2013-01-29 05:13:00,11.5,8.6,22.99,East,90,0.0,0.0,88,0.00,,,0.00,WUHU216HW,2013-01-29 12:13:00,
2013-01-29 05:18:00,11.5,8.6,22.99,East,90,0.0,0.0,88,0.00,,,0.00,WUHU216HW,2013-01-29 12:18:00,
2013-01-29 05:23:00,11.5,8.6,22.99,East,90,0.0,0.0,88,0.00,,,0.00,WUHU216HW,2013-01-29 12:23:00,
2013-01-29 05:28:00,11.3,8.5,22.99,East,90,0.2,0.2,88,0.00,,,0.00,WUHU216HW,2013-01-29 12:28:00,
2013-01-29 05:33:00,11.3,8.5,22.99,East,90,0.0,0.2,88,0.00,,,0.00,WUHU216HW,2013-01-29 12:33:00,
2013-01-29 05:38:00,11.3,8.5,22.99,East,90,0.0,0.0,88,0.00,,,0.00,WUHU216HW,2013-01-29 12:38:00,
2013-01-29 05:43:00,11.3,8.5,22.99,East,90,0.0,0.0,88,0.00,,,0.00,WUHU216HW,2013-01-29 12:43:00,
2013-01-29 05:48:00,11.3,8.5,22.99,East,90,0.0,0.0,88,0.00,,,0.00,WUHU216HW,2013-01-29 12:48:00,
2013-01-29 05:54:00,11.3,8.5,22.99,East,90,0.0,0.0,88,0.00,,,0.00,WUHU216HW,2013-01-29 12:54:00,
2013-01-29 06:00:00,11.3,8.5,22.99,East,90,0.0,0.4,88,0.00,,,0.00,WUHU216HW,2013-01-29 13:00:00,
2013-01-29 06:05:00,11.3,8.5,22.99,East,90,0.0,0.4,88,0.00,,,0.00,WUHU216HW,2013-01-29 13:05:00,
2013-01-29 06:10:00,11.3,8.5,22.99,East,90,0.0,0.4,88,0.00,,,0.00,WUHU216HW,2013-01-29 13:10:00,
2013-01-29 06:15:00,11.3,8.5,22.99,East,90,0.0,0.4,88,0.00,,,0.00,WUHU216HW,2013-01-29 13:15:00,
2013-01-29 06:21:00,11.3,8.5,22.99,East,90,0.0,0.0,88,0.00,,,0.00,WUHU216HW,2013-01-29 13:21:00,
2013-01-29 06:26:00,11.5,8.6,23.00,East,90,0.0,0.0,88,0.00,,,0.00,WUHU216HW,2013-01-29 13:26:00,
2013-01-29 06:31:00,11.5,8.6,22.99,East,90,0.0,0.0,88,0.00,,,0.00,WUHU216HW,2013-01-29 13:31:00,
2013-01-29 06:36:00,11.5,8.6,23.00,East,90,0.0,0.0,88,0.00,,,0.00,WUHU216HW,2013-01-29 13:36:00,
2013-01-29 06:41:00,11.7,9.1,22.99,East,90,0.0,0.2,89,0.00,,,0.00,WUHU216HW,2013-01-29 13:41:00,
2013-01-29 06:46:00,11.7,9.1,22.99,East,90,0.0,0.2,89,0.00,,,0.00,WUHU216HW,2013-01-29 13:46:00,
2013-01-29 06:51:00,11.7,9.1,22.99,East,90,0.0,0.2,89,0.00,,,0.00,WUHU216HW,2013-01-29 13:51:00,
2013-01-29 06:56:00,11.7,9.1,22.99,East,90,0.0,0.0,89,0.00,,,0.00,WUHU216HW,2013-01-29 13:56:00,
2013-01-29 07:01:00,11.9,9.3,22.99,East,90,0.0,0.0,89,0.00,,,0.00,WUHU216HW,2013-01-29 14:01:00,
2013-01-29 07:06:00,11.9,9.3,23.00,East,90,0.0,0.0,89,0.00,,,0.00,WUHU216HW,2013-01-29 14:06:00,
2013-01-29 07:12:00,11.9,9.3,23.00,East,90,0.0,0.0,89,0.00,,,0.00,WUHU216HW,2013-01-29 14:12:00,
2013-01-29 07:17:00,11.9,9.3,23.00,ESE,113,0.0,0.2,89,0.00,,,0.00,WUHU216HW,2013-01-29 14:17:00,
2013-01-29 07:22:00,11.9,9.3,23.00,ESE,113,0.0,0.2,89,0.00,,,0.00,WUHU216HW,2013-01-29 14:22:00,
2013-01-29 07:27:00,11.9,9.3,23.00,ESE,113,0.0,0.0,89,0.00,,,0.00,WUHU216HW,2013-01-29 14:27:00,
2013-01-29 07:33:00,11.9,9.3,23.00,ESE,113,0.0,0.0,89,0.00,,,0.00,WUHU216HW,2013-01-29 14:33:00,
2013-01-29 07:38:00,11.9,9.3,23.00,ESE,113,0.0,0.0,89,0.00,,,0.00,WUHU216HW,2013-01-29 14:38:00,
2013-01-29 07:43:00,11.9,9.3,23.00,ESE,113,0.0,0.0,89,0.00,,,0.00,WUHU216HW,2013-01-29 14:43:00,
2013-01-29 07:48:00,12.1,9.5,23.00,ESE,113,0.0,0.0,89,0.00,,,0.00,WUHU216HW,2013-01-29 14:48:00,
2013-01-29 07:53:00,12.1,9.5,23.00,ESE,113,0.0,0.0,89,0.00,,,0.00,WUHU216HW,2013-01-29 14:53:00,
2013-01-29 07:58:00,12.1,9.5,23.00,ESE,113,0.0,0.0,89,0.00,,,0.00,WUHU216HW,2013-01-29 14:58:00,
2013-01-29 08:03:00,12.2,9.6,23.00,ESE,113,0.0,0.0,89,0.00,,,0.00,WUHU216HW,2013-01-29 15:03:00,
2013-01-29 08:08:00,12.2,9.6,23.00,ESE,113,0.2,0.2,89,0.00,,,0.00,WUHU216HW,2013-01-29 15:08:00,
2013-01-29 08:13:00,12.4,9.8,23.00,ESE,113,0.0,0.2,89,0.00,,,0.00,WUHU216HW,2013-01-29 15:13:00,
2013-01-29 08:18:00,12.2,9.6,23.00,ESE,113,0.0,0.2,89,0.00,,,0.00,WUHU216HW,2013-01-29 15:18:00,
2013-01-29 08:23:00,12.4,9.8,23.00,ESE,113,0.0,0.0,89,0.00,,,0.00,WUHU216HW,2013-01-29 15:23:00,
2013-01-29 08:28:00,12.4,9.8,23.00,ESE,113,0.0,0.0,89,0.00,,,0.00,WUHU216HW,2013-01-29 15:28:00,
2013-01-29 08:33:00,12.6,10.0,23.00,ESE,113,0.4,0.4,89,0.00,,,0.00,WUHU216HW,2013-01-29 15:33:00,
2013-01-29 08:38:00,12.6,10.0,23.01,ESE,113,0.0,0.4,89,0.00,,,0.00,WUHU216HW,2013-01-29 15:38:00,
2013-01-29 08:43:00,12.6,10.0,23.00,ESE,113,0.0,0.4,89,0.00,,,0.00,WUHU216HW,2013-01-29 15:43:00,
2013-01-29 08:48:00,12.6,10.0,23.00,ESE,113,0.0,0.2,89,0.00,,,0.00,WUHU216HW,2013-01-29 15:48:00,
2013-01-29 08:53:00,12.6,10.0,23.00,ESE,113,0.0,0.2,89,0.00,,,0.00,WUHU216HW,2013-01-29 15:53:00,
2013-01-29 08:59:00,12.8,10.2,23.00,ESE,113,0.0,0.4,89,0.00,,,0.00,WUHU216HW,2013-01-29 15:59:00,
2013-01-29 09:04:00,13.0,10.4,23.00,ESE,113,0.0,0.4,89,0.00,,,0.00,WUHU216HW,2013-01-29 16:04:00,
2013-01-29 09:09:00,13.1,10.5,23.01,ESE,113,0.2,1.1,89,0.00,,,0.00,WUHU216HW,2013-01-29 16:09:00,
2013-01-29 09:14:00,13.3,10.7,23.00,ESE,113,0.4,1.1,89,0.00,,,0.00,WUHU216HW,2013-01-29 16:14:00,
2013-01-29 09:19:00,13.3,10.7,23.00,ESE,113,0.0,0.4,89,0.00,,,0.00,WUHU216HW,2013-01-29 16:19:00,
2013-01-29 09:24:00,13.3,10.7,23.00,ESE,113,0.0,0.4,89,0.00,,,0.00,WUHU216HW,2013-01-29 16:24:00,
2013-01-29 09:29:00,13.5,10.9,23.00,ESE,113,0.2,0.2,89,0.00,,,0.00,WUHU216HW,2013-01-29 16:29:00,
2013-01-29 09:34:00,13.7,11.1,23.00,ESE,113,0.4,0.4,89,0.00,,,0.00,WUHU216HW,2013-01-29 16:34:00,
2013-01-29 09:39:00,13.7,10.8,23.00,ESE,113,0.4,0.4,88,0.00,,,0.00,WUHU216HW,2013-01-29 16:39:00,
2013-01-29 09:44:00,13.9,11.0,23.00,ESE,113,0.7,0.7,88,0.00,,,0.00,WUHU216HW,2013-01-29 16:44:00,
2013-01-29 09:49:00,13.9,11.0,23.00,ESE,113,0.4,0.7,88,0.00,,,0.00,WUHU216HW,2013-01-29 16:49:00,
2013-01-29 09:54:00,14.0,11.2,23.01,ESE,113,0.0,0.4,88,0.00,,,0.00,WUHU216HW,2013-01-29 16:54:00,
2013-01-29 09:59:00,14.0,11.2,23.01,ESE,113,0.2,0.4,88,0.00,,,0.00,WUHU216HW,2013-01-29 16:59:00,
2013-01-29 10:04:00,14.4,11.5,23.01,ESE,113,0.2,0.4,88,0.00,,,0.00,WUHU216HW,2013-01-29 17:04:00,
2013-01-29 10:09:00,14.4,11.5,23.01,ESE,113,0.4,0.4,88,0.00,,,0.00,WUHU216HW,2013-01-29 17:09:00,
2013-01-29 10:15:00,14.4,11.5,23.01,ESE,113,0.2,0.4,88,0.00,,,0.00,WUHU216HW,2013-01-29 17:15:00,
2013-01-29 10:20:00,14.6,11.7,23.01,ESE,113,0.0,0.4,88,0.00,,,0.00,WUHU216HW,2013-01-29 17:20:00,
2013-01-29 10:25:00,14.8,11.8,23.01,ESE,113,0.4,0.4,88,0.00,,,0.00,WUHU216HW,2013-01-29 17:25:00,
2013-01-29 10:30:00,14.8,11.8,23.02,ESE,113,0.7,0.7,88,0.00,,,0.00,WUHU216HW,2013-01-29 17:30:00,
2013-01-29 10:35:00,15.1,12.2,23.02,ESE,113,0.0,0.7,88,0.00,,,0.00,WUHU216HW,2013-01-29 17:35:00,
2013-01-29 10:40:00,15.3,12.3,23.02,ESE,113,0.0,0.4,88,0.00,,,0.00,WUHU216HW,2013-01-29 17:40:00,
2013-01-29 10:45:00,15.5,12.5,23.02,ESE,113,0.0,0.0,88,0.00,,,0.00,WUHU216HW,2013-01-29 17:45:00,
2013-01-29 10:50:00,15.7,12.7,23.02,ESE,113,0.0,0.0,88,0.00,,,0.00,WUHU216HW,2013-01-29 17:50:00,
2013-01-29 10:55:00,16.2,13.1,23.02,WNW,293,0.2,0.2,88,0.00,,,0.00,WUHU216HW,2013-01-29 17:55:00,
2013-01-29 11:00:00,16.6,13.5,23.02,West,270,0.0,0.2,88,0.00,,,0.00,WUHU216HW,2013-01-29 18:00:00,
2013-01-29 11:06:00,17.1,14.3,23.02,West,270,0.2,1.1,89,0.00,,,0.00,WUHU216HW,2013-01-29 18:06:00,
2013-01-29 11:11:00,17.6,14.9,23.03,WSW,248,1.3,1.3,89,0.00,,,0.00,WUHU216HW,2013-01-29 18:11:00,
2013-01-29 11:16:00,17.8,15.0,23.03,WNW,293,0.0,2.5,89,0.00,,,0.00,WUHU216HW,2013-01-29 18:16:00,
2013-01-29 11:21:00,18.0,15.2,23.03,SSW,203,1.3,1.8,89,0.00,,,0.00,WUHU216HW,2013-01-29 18:21:00,
2013-01-29 11:26:00,18.4,15.8,23.03,WNW,293,0.7,1.6,90,0.00,,,0.00,WUHU216HW,2013-01-29 18:26:00,
2013-01-29 11:31:00,18.5,16.0,23.03,WSW,248,0.2,2.5,90,0.00,,,0.00,WUHU216HW,2013-01-29 18:31:00,
2013-01-29 11:36:00,18.7,16.2,23.03,WNW,293,1.8,2.5,90,0.00,,,0.00,WUHU216HW,2013-01-29 18:36:00,
2013-01-29 11:41:00,18.9,16.1,23.03,WNW,293,2.2,2.2,89,0.00,,,0.00,WUHU216HW,2013-01-29 18:41:00,
2013-01-29 11:46:00,19.1,16.3,23.03,WSW,248,1.8,3.1,89,0.00,,,0.00,WUHU216HW,2013-01-29 18:46:00,
2013-01-29 11:51:00,19.1,16.3,23.03,WNW,293,4.0,4.0,89,0.00,,,0.00,WUHU216HW,2013-01-29 18:51:00,
2013-01-29 11:56:00,19.3,16.5,23.03,NW,315,1.1,4.0,89,0.00,,,0.00,WUHU216HW,2013-01-29 18:56:00,
2013-01-29 12:01:00,19.6,16.8,23.04,WNW,293,1.8,1.8,89,0.00,,,0.00,WUHU216HW,2013-01-29 19:01:00,
2013-01-29 12:06:00,20.0,17.2,23.04,West,270,1.1,2.5,89,0.00,,,0.00,WUHU216HW,2013-01-29 19:06:00,
2013-01-29 12:11:00,20.3,17.6,23.04,WSW,248,0.4,3.4,89,0.00,,,0.00,WUHU216HW,2013-01-29 19:11:00,
2013-01-29 12:16:00,20.5,17.7,23.04,WSW,248,2.0,3.4,89,0.00,,,0.00,WUHU216HW,2013-01-29 19:16:00,
2013-01-29 12:21:00,20.7,17.9,23.04,WNW,293,2.7,3.8,89,0.00,,,0.00,WUHU216HW,2013-01-29 19:21:00,
2013-01-29 12:26:00,20.9,17.8,23.04,WSW,248,0.4,3.8,88,0.00,,,0.00,WUHU216HW,2013-01-29 19:26:00,
2013-01-29 12:32:00,21.1,18.0,23.04,WNW,293,3.8,3.8,88,0.00,,,0.00,WUHU216HW,2013-01-29 19:32:00,
2013-01-29 12:37:00,21.2,18.2,23.04,WSW,248,0.4,3.8,88,0.00,,,0.00,WUHU216HW,2013-01-29 19:37:00,
2013-01-29 12:42:00,21.2,18.2,23.04,West,270,1.8,3.4,88,0.00,,,0.00,WUHU216HW,2013-01-29 19:42:00,
2013-01-29 12:47:00,21.2,18.2,23.04,West,270,1.8,4.3,88,0.00,,,0.00,WUHU216HW,2013-01-29 19:47:00,
2013-01-29 12:52:00,21.2,17.9,23.05,West,270,1.1,4.9,87,0.00,,,0.00,WUHU216HW,2013-01-29 19:52:00,
2013-01-29 12:57:00,21.2,17.9,23.05,WNW,293,0.2,4.5,87,0.00,,,0.00,WUHU216HW,2013-01-29 19:57:00,
2013-01-29 12:59:00,21.2,17.9,23.05,West,270,0.2,4.5,87,0.00,,,0.00,WUHU216HW,2013-01-29 19:59:00,
2013-01-29 13:04:00,21.2,17.9,23.05,West,270,2.5,4.5,87,0.00,,,0.00,WUHU216HW,2013-01-29 20:04:00,
2013-01-29 13:09:00,21.2,17.9,23.05,WNW,293,4.0,4.0,87,0.00,,,0.00,WUHU216HW,2013-01-29 20:09:00,
2013-01-29 13:14:00,21.4,18.1,23.05,WNW,293,0.9,4.0,87,0.00,,,0.00,WUHU216HW,2013-01-29 20:14:00,
2013-01-29 13:19:00,21.6,18.3,23.05,WNW,293,3.4,3.6,87,0.00,,,0.00,WUHU216HW,2013-01-29 20:19:00,
2013-01-29 13:24:00,21.6,18.3,23.05,NW,315,3.6,3.6,87,0.00,,,0.00,WUHU216HW,2013-01-29 20:24:00,
2013-01-29 13:29:00,21.8,18.5,23.05,WNW,293,2.5,3.6,87,0.00,,,0.00,WUHU216HW,2013-01-29 20:29:00,
2013-01-29 13:35:00,21.6,18.3,23.05,WSW,248,4.9,4.9,87,0.00,,,0.00,WUHU216HW,2013-01-29 20:35:00,
2013-01-29 13:40:00,21.2,17.9,23.05,WNW,293,0.7,5.1,87,0.00,,,0.00,WUHU216HW,2013-01-29 20:40:00,
2013-01-29 13:45:00,21.4,18.1,23.05,NNW,338,0.4,2.2,87,0.00,,,0.00,WUHU216HW,2013-01-29 20:45:00,
2013-01-29 13:50:00,21.6,18.3,23.06,West,270,2.5,4.7,87,0.00,,,0.00,WUHU216HW,2013-01-29 20:50:00,
2013-01-29 13:55:00,21.6,18.3,23.06,WSW,248,2.5,5.1,87,0.00,,,0.00,WUHU216HW,2013-01-29 20:55:00,
2013-01-29 14:00:00,21.6,18.3,23.06,West,270,3.4,5.1,87,0.00,,,0.00,WUHU216HW,2013-01-29 21:00:00,
2013-01-29 14:05:00,21.6,18.3,23.06,WSW,248,2.2,3.4,87,0.00,,,0.00,WUHU216HW,2013-01-29 21:05:00,
2013-01-29 14:10:00,21.6,18.3,23.06,NW,315,2.5,6.3,87,0.00,,,0.00,WUHU216HW,2013-01-29 21:10:00,
2013-01-29 14:15:00,21.4,18.1,23.06,WNW,293,0.7,6.3,87,0.00,,,0.00,WUHU216HW,2013-01-29 21:15:00,
2013-01-29 14:20:00,21.2,17.6,23.07,South,180,5.4,5.4,86,0.00,,,0.00,WUHU216HW,2013-01-29 21:20:00,
2013-01-29 14:25:00,21.2,17.6,23.07,WSW,248,0.4,5.4,86,0.00,,,0.00,WUHU216HW,2013-01-29 21:25:00,
2013-01-29 14:30:00,21.1,17.5,23.07,West,270,1.3,4.7,86,0.00,,,0.00,WUHU216HW,2013-01-29 21:30:00,
2013-01-29 14:35:00,21.1,17.5,23.07,SW,225,0.9,3.1,86,0.00,,,0.00,WUHU216HW,2013-01-29 21:35:00,
2013-01-29 14:40:00,20.9,17.3,23.08,WSW,248,3.8,3.8,86,0.00,,,0.00,WUHU216HW,2013-01-29 21:40:00,
2013-01-29 14:45:00,20.9,17.3,23.08,WSW,248,2.5,4.0,86,0.00,,,0.00,WUHU216HW,2013-01-29 21:45:00,
2013-01-29 14:50:00,20.9,17.3,23.08,WSW,248,2.0,4.7,86,0.00,,,0.00,WUHU216HW,2013-01-29 21:50:00,
2013-01-29 14:55:00,21.1,17.5,23.08,WNW,293,4.3,4.7,86,0.00,,,0.00,WUHU216HW,2013-01-29 21:55:00,
2013-01-29 15:01:00,21.2,17.6,23.08,WNW,293,2.9,4.3,86,0.00,,,0.00,WUHU216HW,2013-01-29 22:01:00,
2013-01-29 15:06:00,21.2,17.6,23.08,West,270,1.8,4.7,86,0.00,,,0.00,WUHU216HW,2013-01-29 22:06:00,
2013-01-29 15:11:00,21.2,17.6,23.08,West,270,1.6,4.7,86,0.00,,,0.00,WUHU216HW,2013-01-29 22:11:00,
2013-01-29 15:16:00,21.1,17.5,23.09,West,270,1.1,3.4,86,0.00,,,0.00,WUHU216HW,2013-01-29 22:16:00,
2013-01-29 15:21:00,21.1,17.5,23.09,SW,225,0.4,3.4,86,0.00,,,0.00,WUHU216HW,2013-01-29 22:21:00,
2013-01-29 15:26:00,21.1,17.5,23.09,SW,225,2.0,4.0,86,0.00,,,0.00,WUHU216HW,2013-01-29 22:26:00,
2013-01-29 15:31:00,21.1,17.5,23.10,WNW,293,2.9,4.0,86,0.00,,,0.00,WUHU216HW,2013-01-29 22:31:00,
2013-01-29 15:36:00,20.9,17.3,23.10,WNW,293,1.1,3.1,86,0.00,,,0.00,WUHU216HW,2013-01-29 22:36:00,
2013-01-29 15:41:00,20.9,17.3,23.10,WSW,248,2.5,3.4,86,0.00,,,0.00,WUHU216HW,2013-01-29 22:41:00,
2013-01-29 15:46:00,20.9,17.3,23.10,WNW,293,1.8,5.1,86,0.00,,,0.00,WUHU216HW,2013-01-29 22:46:00,
2013-01-29 15:51:00,20.7,17.1,23.11,WSW,248,1.8,5.1,86,0.00,,,0.00,WUHU216HW,2013-01-29 22:51:00,
2013-01-29 15:56:00,20.5,16.9,23.11,WSW,248,1.1,3.4,86,0.00,,,0.00,WUHU216HW,2013-01-29 22:56:00,
2013-01-29 16:01:00,20.5,16.9,23.11,WSW,248,1.1,3.4,86,0.00,,,0.00,WUHU216HW,2013-01-29 23:01:00,
2013-01-29 16:06:00,20.2,16.3,23.11,SW,225,1.1,2.7,85,0.00,,,0.00,WUHU216HW,2013-01-29 23:06:00,
2013-01-29 16:11:00,20.0,16.4,23.11,WNW,293,0.0,3.4,86,0.00,,,0.00,WUHU216HW,2013-01-29 23:11:00,
2013-01-29 16:16:00,19.8,16.2,23.11,West,270,0.2,3.4,86,0.00,,,0.00,WUHU216HW,2013-01-29 23:16:00,
2013-01-29 16:22:00,19.8,16.2,23.11,SW,225,2.2,2.5,86,0.00,,,0.00,WUHU216HW,2013-01-29 23:22:00,
2013-01-29 16:27:00,19.8,16.2,23.12,NW,315,1.6,3.1,86,0.00,,,0.00,WUHU216HW,2013-01-29 23:27:00,
2013-01-29 16:32:00,19.8,15.9,23.12,NNW,338,2.5,3.6,85,0.00,,,0.00,WUHU216HW,2013-01-29 23:32:00,
2013-01-29 16:37:00,19.8,15.7,23.12,South,180,1.3,4.0,84,0.00,,,0.00,WUHU216HW,2013-01-29 23:37:00,
2013-01-29 16:42:00,19.8,15.9,23.13,NNW,338,1.8,4.5,85,0.00,,,0.00,WUHU216HW,2013-01-29 23:42:00,
2013-01-29 16:47:00,19.6,15.5,23.13,SW,225,1.3,5.1,84,0.00,,,0.00,WUHU216HW,2013-01-29 23:47:00,
2013-01-29 16:52:00,19.4,15.6,23.13,SW,225,2.7,5.1,85,0.00,,,0.00,WUHU216HW,2013-01-29 23:52:00,
2013-01-29 16:58:00,19.4,15.6,23.13,WSW,248,1.6,4.3,85,0.00,,,0.00,WUHU216HW,2013-01-29 23:58:00,
2013-01-29 17:03:00,19.3,15.4,23.13,SW,225,3.6,4.0,85,0.00,,,0.00,WUHU216HW,2013-01-30 00:03:00,
2013-01-29 17:08:00,19.1,15.2,23.13,SSW,203,0.2,3.6,85,0.00,,,0.00,WUHU216HW,2013-01-30 00:08:00,
2013-01-29 17:13:00,18.9,15.0,23.14,WSW,248,2.9,2.9,85,0.00,,,0.00,WUHU216HW,2013-01-30 00:13:00,
2013-01-29 17:18:00,18.7,15.1,23.14,West,270,1.6,2.9,86,0.00,,,0.00,WUHU216HW,2013-01-30 00:18:00,
2013-01-29 17:23:00,18.5,14.7,23.15,NW,315,0.0,2.5,85,0.00,,,0.00,WUHU216HW,2013-01-30 00:23:00,
2013-01-29 17:28:00,18.4,14.5,23.15,WNW,293,0.0,2.5,85,0.00,,,0.00,WUHU216HW,2013-01-30 00:28:00,
2013-01-29 17:33:00,18.2,14.6,23.15,SSW,203,2.0,2.9,86,0.00,,,0.00,WUHU216HW,2013-01-30 00:33:00,
2013-01-29 17:38:00,18.2,14.6,23.15,West,270,0.4,2.9,86,0.00,,,0.00,WUHU216HW,2013-01-30 00:38:00,
2013-01-29 17:43:00,18.0,14.4,23.15,WNW,293,0.9,2.7,86,0.00,,,0.00,WUHU216HW,2013-01-30 00:43:00,
2013-01-29 17:48:00,17.8,14.2,23.16,WNW,293,0.7,2.7,86,0.00,,,0.00,WUHU216HW,2013-01-30 00:48:00,
2013-01-29 17:53:00,17.6,14.0,23.16,WNW,293,0.9,1.1,86,0.00,,,0.00,WUHU216HW,2013-01-30 00:53:00,
2013-01-29 17:58:00,17.5,13.9,23.16,West,270,0.0,1.1,86,0.00,,,0.00,WUHU216HW,2013-01-30 00:58:00,
2013-01-29 18:03:00,17.3,13.7,23.16,SSW,203,0.7,2.2,86,0.00,,,0.00,WUHU216HW,2013-01-30 01:03:00,
2013-01-29 18:08:00,17.1,13.5,23.17,NW,315,0.7,2.2,86,0.00,,,0.00,WUHU216HW,2013-01-30 01:08:00,
2013-01-29 18:13:00,16.9,13.3,23.17,WNW,293,1.6,2.2,86,0.00,,,0.00,WUHU216HW,2013-01-30 01:13:00,
2013-01-29 18:18:00,16.9,13.3,23.17,West,270,0.9,2.2,86,0.00,,,0.00,WUHU216HW,2013-01-30 01:18:00,
2013-01-29 18:24:00,16.7,13.1,23.17,West,270,0.0,2.7,86,0.00,,,0.00,WUHU216HW,2013-01-30 01:24:00,
2013-01-29 18:29:00,16.7,13.1,23.17,West,270,0.4,2.7,86,0.00,,,0.00,WUHU216HW,2013-01-30 01:29:00,
2013-01-29 18:34:00,16.6,13.0,23.18,WNW,293,0.0,2.9,86,0.00,,,0.00,WUHU216HW,2013-01-30 01:34:00,
2013-01-29 18:39:00,16.4,12.9,23.19,West,270,1.3,2.9,86,0.00,,,0.00,WUHU216HW,2013-01-30 01:39:00,
2013-01-29 18:44:00,16.4,12.9,23.19,West,270,0.0,2.7,86,0.00,,,0.00,WUHU216HW,2013-01-30 01:44:00,
2013-01-29 18:49:00,16.2,12.7,23.19,WNW,293,0.4,1.1,86,0.00,,,0.00,WUHU216HW,2013-01-30 01:49:00,
2013-01-29 18:54:00,16.2,12.7,23.19,SSE,158,1.3,1.3,86,0.00,,,0.00,WUHU216HW,2013-01-30 01:54:00,
2013-01-29 18:59:00,16.2,12.7,23.19,WNW,293,0.0,1.3,86,0.00,,,0.00,WUHU216HW,2013-01-30 01:59:00,
2013-01-29 19:04:00,16.4,13.1,23.19,SW,225,0.0,1.1,87,0.00,,,0.00,WUHU216HW,2013-01-30 02:04:00,
2013-01-29 19:09:00,16.4,13.1,23.19,SSW,203,1.1,1.1,87,0.00,,,0.00,WUHU216HW,2013-01-30 02:09:00,
2013-01-29 19:14:00,16.6,13.2,23.20,West,270,0.9,1.8,87,0.00,,,0.00,WUHU216HW,2013-01-30 02:14:00,
2013-01-29 19:19:00,16.6,13.2,23.20,WNW,293,0.0,2.5,87,0.00,,,0.00,WUHU216HW,2013-01-30 02:19:00,
2013-01-29 19:24:00,16.7,13.4,23.21,WNW,293,0.0,2.5,87,0.00,,,0.00,WUHU216HW,2013-01-30 02:24:00,
2013-01-29 19:29:00,16.7,13.4,23.21,WNW,293,0.4,0.4,87,0.00,,,0.00,WUHU216HW,2013-01-30 02:29:00,
2013-01-29 19:34:00,16.7,13.4,23.21,West,270,0.4,0.4,87,0.00,,,0.00,WUHU216HW,2013-01-30 02:34:00,
2013-01-29 19:39:00,16.9,13.6,23.21,West,270,0.2,0.9,87,0.00,,,0.00,WUHU216HW,2013-01-30 02:39:00,
2013-01-29 19:44:00,16.9,13.6,23.21,WNW,293,0.9,0.9,87,0.00,,,0.00,WUHU216HW,2013-01-30 02:44:00,
2013-01-29 19:49:00,16.9,13.6,23.21,WNW,293,1.6,1.6,87,0.00,,,0.00,WUHU216HW,2013-01-30 02:49:00,
2013-01-29 19:54:00,16.7,13.4,23.22,NW,315,0.0,1.6,87,0.00,,,0.00,WUHU216HW,2013-01-30 02:54:00,
2013-01-29 19:59:00,16.6,13.2,23.22,SSW,203,1.3,1.6,87,0.00,,,0.00,WUHU216HW,2013-01-30 02:59:00,
2013-01-29 20:05:00,16.6,13.2,23.22,West,270,0.0,1.6,87,0.00,,,0.00,WUHU216HW,2013-01-30 03:05:00,
2013-01-29 20:10:00,16.4,13.1,23.22,West,270,0.2,1.3,87,0.00,,,0.00,WUHU216HW,2013-01-30 03:10:00,
2013-01-29 20:15:00,16.2,12.9,23.22,West,270,0.0,1.1,87,0.00,,,0.00,WUHU216HW,2013-01-30 03:15:00,
2013-01-29 20:20:00,16.2,12.9,23.22,West,270,1.3,1.3,87,0.00,,,0.00,WUHU216HW,2013-01-30 03:20:00,
2013-01-29 20:25:00,16.2,12.9,23.22,West,270,0.7,1.3,87,0.00,,,0.00,WUHU216HW,2013-01-30 03:25:00,
2013-01-29 20:30:00,16.0,12.8,23.22,WNW,293,0.2,1.1,87,0.00,,,0.00,WUHU216HW,2013-01-30 03:30:00,
2013-01-29 20:35:00,16.0,12.8,23.22,WNW,293,0.7,1.8,87,0.00,,,0.00,WUHU216HW,2013-01-30 03:35:00,
2013-01-29 20:40:00,16.0,12.8,23.22,WNW,293,0.0,1.8,87,0.00,,,0.00,WUHU216HW,2013-01-30 03:40:00,
2013-01-29 20:45:00,16.0,12.8,23.22,West,270,0.4,0.7,87,0.00,,,0.00,WUHU216HW,2013-01-30 03:45:00,
2013-01-29 20:50:00,15.8,12.6,23.23,West,270,1.1,1.1,87,0.00,,,0.00,WUHU216HW,2013-01-30 03:50:00,
2013-01-29 20:56:00,16.0,12.8,23.23,WNW,293,0.0,1.1,87,0.00,,,0.00,WUHU216HW,2013-01-30 03:56:00,
2013-01-29 21:01:00,16.0,12.8,23.24,West,270,1.1,1.1,87,0.00,,,0.00,WUHU216HW,2013-01-30 04:01:00,
2013-01-29 21:06:00,16.0,12.8,23.24,WNW,293,0.4,1.1,87,0.00,,,0.00,WUHU216HW,2013-01-30 04:06:00,
2013-01-29 21:11:00,16.0,12.8,23.24,West,270,0.4,1.1,87,0.00,,,0.00,WUHU216HW,2013-01-30 04:11:00,
2013-01-29 21:16:00,16.2,13.1,23.24,WSW,248,1.6,1.6,88,0.00,,,0.00,WUHU216HW,2013-01-30 04:16:00,
2013-01-29 21:21:00,16.2,13.1,23.24,West,270,0.9,1.6,88,0.00,,,0.00,WUHU216HW,2013-01-30 04:21:00,
2013-01-29 21:26:00,16.2,13.1,23.24,WNW,293,0.9,1.1,88,0.00,,,0.00,WUHU216HW,2013-01-30 04:26:00,
2013-01-29 21:31:00,16.2,13.1,23.24,WNW,293,0.7,1.1,88,0.00,,,0.00,WUHU216HW,2013-01-30 04:31:00,
2013-01-29 21:36:00,16.2,13.1,23.24,West,270,0.7,1.1,88,0.00,,,0.00,WUHU216HW,2013-01-30 04:36:00,
2013-01-29 21:41:00,16.2,13.1,23.24,WSW,248,1.1,1.1,88,0.00,,,0.00,WUHU216HW,2013-01-30 04:41:00,
2013-01-29 21:46:00,16.2,12.9,23.24,West,270,1.3,2.2,87,0.00,,,0.00,WUHU216HW,2013-01-30 04:46:00,
2013-01-29 21:51:00,16.2,12.9,23.24,WNW,293,1.1,2.2,87,0.00,,,0.00,WUHU216HW,2013-01-30 04:51:00,
2013-01-29 21:57:00,16.2,12.9,23.24,WNW,293,1.1,1.6,87,0.00,,,0.00,WUHU216HW,2013-01-30 04:57:00,
2013-01-29 22:00:00,16.2,12.9,23.24,WSW,248,0.9,1.6,87,0.00,,,0.00,WUHU216HW,2013-01-30 05:00:00,
2013-01-29 22:02:00,16.2,12.9,23.24,NW,315,1.1,2.0,87,0.00,,,0.00,WUHU216HW,2013-01-30 05:02:00,
2013-01-29 22:07:00,16.2,12.9,23.24,West,270,0.4,2.0,87,0.00,,,0.00,WUHU216HW,2013-01-30 05:07:00,
2013-01-29 22:12:00,16.4,13.1,23.24,WNW,293,1.1,1.8,87,0.00,,,0.00,WUHU216HW,2013-01-30 05:12:00,
2013-01-29 22:18:00,16.4,13.1,23.24,West,270,1.1,1.8,87,0.00,,,0.00,WUHU216HW,2013-01-30 05:18:00,
2013-01-29 22:23:00,16.4,13.1,23.24,West,270,0.4,2.0,87,0.00,,,0.00,WUHU216HW,2013-01-30 05:23:00,
2013-01-29 22:28:00,16.6,13.2,23.24,WNW,293,2.2,2.2,87,0.00,,,0.00,WUHU216HW,2013-01-30 05:28:00,
2013-01-29 22:33:00,16.6,13.2,23.24,West,270,1.1,2.2,87,0.00,,,0.00,WUHU216HW,2013-01-30 05:33:00,
2013-01-29 22:38:00,16.6,13.2,23.25,NW,315,1.8,1.8,87,0.00,,,0.00,WUHU216HW,2013-01-30 05:38:00,
2013-01-29 22:43:00,16.6,13.5,23.25,WSW,248,1.3,2.2,88,0.00,,,0.00,WUHU216HW,2013-01-30 05:43:00,
2013-01-29 22:49:00,16.6,13.2,23.24,WNW,293,1.1,2.2,87,0.00,,,0.00,WUHU216HW,2013-01-30 05:49:00,
2013-01-29 22:54:00,16.7,13.7,23.24,West,270,2.0,2.0,88,0.00,,,0.00,WUHU216HW,2013-01-30 05:54:00,
2013-01-29 23:00:00,16.9,13.9,23.24,West,270,1.1,2.0,88,0.00,,,0.00,WUHU216HW,2013-01-30 06:00:00,
2013-01-29 23:05:00,16.9,13.9,23.24,WNW,293,0.4,2.0,88,0.00,,,0.00,WUHU216HW,2013-01-30 06:05:00,
2013-01-29 23:10:00,16.9,13.9,23.24,WNW,293,2.0,2.0,88,0.00,,,0.00,WUHU216HW,2013-01-30 06:10:00,
2013-01-29 23:15:00,16.9,13.9,23.24,West,270,1.1,2.5,88,0.00,,,0.00,WUHU216HW,2013-01-30 06:15:00,
2013-01-29 23:20:00,16.9,13.9,23.24,West,270,0.4,2.5,88,0.00,,,0.00,WUHU216HW,2013-01-30 06:20:00,
2013-01-29 23:25:00,16.9,13.9,23.25,West,270,1.8,1.8,88,0.00,,,0.00,WUHU216HW,2013-01-30 06:25:00,
2013-01-29 23:31:00,16.9,13.9,23.25,WNW,293,0.9,1.8,88,0.00,,,0.00,WUHU216HW,2013-01-30 06:31:00,
2013-01-29 23:36:00,16.9,13.9,23.26,SW,225,1.6,1.8,88,0.00,,,0.00,WUHU216HW,2013-01-30 06:36:00,
2013-01-29 23:41:00,16.9,13.9,23.25,SW,225,0.4,2.5,88,0.00,,,0.00,WUHU216HW,2013-01-30 06:41:00,
2013-01-29 23:46:00,16.9,13.9,23.25,WNW,293,1.6,3.1,88,0.00,,,0.00,WUHU216HW,2013-01-30 06:46:00,
2013-01-29 23:51:00,16.9,13.9,23.25,WNW,293,0.4,3.4,88,0.00,,,0.00,WUHU216HW,2013-01-30 06:51:00,
2013-01-29 23:56:00,16.9,13.9,23.26,West,270,0.9,3.4,88,0.00,,,0.00,WUHU216HW,2013-01-30 06:56:00,